createdAt,value
2022-10-30T00:00:19.213Z,20.20
2022-10-30T00:02:49.002Z,20.20
2022-10-30T00:05:20.192Z,20.20
2022-10-30T00:07:51.073Z,20.20
2022-10-30T00:10:20.462Z,20.20
2022-10-30T00:12:49.532Z,20.10
2022-10-30T00:15:18.700Z,20.10
2022-10-30T00:17:47.745Z,20.10
2022-10-30T00:20:16.974Z,20.10
2022-10-30T00:22:46.030Z,20.00
2022-10-30T00:25:16.699Z,20.00
2022-10-30T00:27:45.775Z,19.90
2022-10-30T00:30:15.530Z,19.90
2022-10-30T00:32:44.688Z,19.90
2022-10-30T00:35:13.870Z,19.80
2022-10-30T00:37:43.007Z,19.80
2022-10-30T00:40:18.651Z,19.80
2022-10-30T00:42:47.800Z,19.70
2022-10-30T00:45:18.649Z,19.70
2022-10-30T00:47:53.942Z,19.60
2022-10-30T00:53:06.850Z,19.60
2022-10-30T00:55:47.080Z,19.50
2022-10-30T00:58:22.140Z,19.50
2022-10-30T01:00:56.070Z,19.50
2022-10-30T01:03:28.136Z,19.40
2022-10-30T01:06:02.219Z,19.40
2022-10-30T01:08:31.982Z,19.30
2022-10-30T01:11:04.852Z,19.30
2022-10-30T01:13:35.968Z,19.30
2022-10-30T01:16:22.492Z,19.20
2022-10-30T01:19:00.169Z,19.20
2022-10-30T01:21:46.155Z,19.20
2022-10-30T01:24:39.249Z,19.10
2022-10-30T01:27:28.874Z,19.10
2022-10-30T01:30:12.376Z,19.10
2022-10-30T01:33:01.006Z,19.10
2022-10-30T01:35:41.098Z,19.00
2022-10-30T01:38:17.166Z,19.00
2022-10-30T01:40:46.845Z,19.00
2022-10-30T01:43:17.508Z,18.90
2022-10-30T01:46:10.974Z,18.90
2022-10-30T01:49:02.726Z,18.90
2022-10-30T01:51:52.630Z,18.90
2022-10-30T01:54:33.837Z,18.90
2022-10-30T01:57:13.263Z,18.80
2022-10-30T01:59:49.244Z,18.80
2022-10-30T02:02:18.637Z,18.80
2022-10-30T02:04:48.063Z,18.80
2022-10-30T02:07:18.012Z,18.80
2022-10-30T02:09:53.152Z,18.80
2022-10-30T02:12:23.361Z,18.80
2022-10-30T02:14:58.659Z,18.80
2022-10-30T02:17:28.808Z,18.80
2022-10-30T02:19:58.173Z,18.70
2022-10-30T02:22:28.896Z,18.70
2022-10-30T02:24:57.993Z,18.70
2022-10-30T02:27:27.455Z,18.70
2022-10-30T02:29:56.519Z,18.70
2022-10-30T02:32:26.072Z,18.60
2022-10-30T02:34:55.065Z,18.60
2022-10-30T02:37:24.385Z,18.60
2022-10-30T02:39:55.236Z,18.60
2022-10-30T02:42:24.371Z,18.60
2022-10-30T02:44:55.952Z,18.60
2022-10-30T02:47:25.096Z,18.70
2022-10-30T02:49:54.276Z,18.70
2022-10-30T02:52:23.435Z,18.70
2022-10-30T02:54:53.989Z,18.70
2022-10-30T02:57:23.097Z,18.70
2022-10-30T02:59:52.183Z,18.70
2022-10-30T03:02:21.338Z,18.70
2022-10-30T03:04:50.504Z,18.80
2022-10-30T03:07:19.767Z,18.80
2022-10-30T03:09:48.798Z,18.80
2022-10-30T03:12:19.296Z,18.80
2022-10-30T03:14:48.357Z,18.80
2022-10-30T03:17:17.582Z,18.80
2022-10-30T03:19:46.601Z,18.80
2022-10-30T03:22:15.767Z,18.80
2022-10-30T03:24:44.869Z,18.80
2022-10-30T03:27:14.047Z,18.70
2022-10-30T03:29:44.629Z,18.70
2022-10-30T03:32:14.814Z,18.70
2022-10-30T03:34:49.999Z,18.70
2022-10-30T03:37:21.137Z,18.70
2022-10-30T03:39:50.432Z,18.70
2022-10-30T03:42:23.097Z,18.70
2022-10-30T03:44:55.391Z,18.70
2022-10-30T03:47:24.765Z,18.70
2022-10-30T03:49:53.848Z,18.70
2022-10-30T03:52:23.405Z,18.70
2022-10-30T03:54:54.473Z,18.70
2022-10-30T03:57:23.800Z,18.70
2022-10-30T04:00:16.515Z,18.70
2022-10-30T04:02:58.187Z,18.70
2022-10-30T04:05:30.174Z,18.60
2022-10-30T04:08:02.479Z,18.60
2022-10-30T04:10:36.809Z,18.60
2022-10-30T04:13:13.071Z,18.50
2022-10-30T04:15:57.286Z,18.50
2022-10-30T04:18:27.740Z,18.50
2022-10-30T04:20:57.372Z,18.50
2022-10-30T04:23:26.965Z,18.50
2022-10-30T04:25:57.740Z,18.50
2022-10-30T04:28:28.248Z,18.50
2022-10-30T04:30:59.425Z,18.50
2022-10-30T04:33:28.824Z,18.50
2022-10-30T04:35:59.642Z,18.50
2022-10-30T04:38:29.147Z,18.50
2022-10-30T04:40:59.453Z,18.50
2022-10-30T04:43:43.174Z,18.50
2022-10-30T04:46:13.773Z,18.50
2022-10-30T04:48:42.975Z,18.50
2022-10-30T04:51:12.773Z,18.50
2022-10-30T04:53:42.402Z,18.50
2022-10-30T04:56:14.932Z,18.50
2022-10-30T04:58:44.216Z,18.50
2022-10-30T05:01:14.787Z,18.50
2022-10-30T05:03:44.009Z,18.50
2022-10-30T05:06:23.413Z,18.50
2022-10-30T05:08:52.946Z,18.50
2022-10-30T05:11:37.604Z,18.50
2022-10-30T05:14:06.633Z,18.60
2022-10-30T05:16:37.181Z,18.50
2022-10-30T05:19:07.186Z,18.60
2022-10-30T05:21:37.360Z,18.60
2022-10-30T05:24:08.095Z,18.60
2022-10-30T05:26:44.324Z,18.60
2022-10-30T05:29:14.815Z,18.60
2022-10-30T05:31:45.697Z,18.60
2022-10-30T05:34:14.744Z,18.70
2022-10-30T05:36:45.094Z,18.70
2022-10-30T05:39:16.251Z,18.70
2022-10-30T05:41:49.218Z,18.70
2022-10-30T05:44:34.355Z,18.70
2022-10-30T05:47:13.276Z,18.70
2022-10-30T05:49:46.874Z,18.70
2022-10-30T05:52:20.848Z,18.80
2022-10-30T05:54:51.764Z,18.80
2022-10-30T05:57:33.137Z,18.80
2022-10-30T06:00:03.223Z,18.70
2022-10-30T06:02:53.965Z,18.80
2022-10-30T06:05:23.129Z,18.70
2022-10-30T06:07:55.847Z,18.70
2022-10-30T06:10:25.291Z,18.70
2022-10-30T06:13:26.826Z,18.70
2022-10-30T06:16:10.136Z,18.80
2022-10-30T06:18:58.710Z,18.70
2022-10-30T06:21:29.129Z,18.80
2022-10-30T06:24:19.808Z,18.80
2022-10-30T06:27:07.241Z,18.80
2022-10-30T06:29:36.610Z,18.80
2022-10-30T06:32:06.902Z,18.80
2022-10-30T06:34:38.173Z,18.80
2022-10-30T06:37:08.445Z,18.90
2022-10-30T06:39:37.787Z,18.90
2022-10-30T06:42:24.893Z,18.90
2022-10-30T06:45:09.343Z,19.00
2022-10-30T06:47:39.409Z,19.10
2022-10-30T06:50:14.461Z,19.20
2022-10-30T06:52:43.833Z,19.30
2022-10-30T06:55:13.568Z,19.40
2022-10-30T06:57:56.306Z,19.50
2022-10-30T07:01:01.954Z,19.50
2022-10-30T07:03:56.805Z,19.60
2022-10-30T07:06:27.597Z,19.70
2022-10-30T07:08:56.846Z,19.80
2022-10-30T07:11:26.394Z,19.90
2022-10-30T07:14:30.668Z,20.10
2022-10-30T07:17:13.512Z,20.30
2022-10-30T07:19:45.376Z,20.40
2022-10-30T07:22:16.128Z,20.60
2022-10-30T07:24:49.543Z,20.80
2022-10-30T07:27:52.988Z,21.00
2022-10-30T07:30:47.910Z,21.30
2022-10-30T07:33:45.879Z,21.50
2022-10-30T07:36:42.882Z,21.70
2022-10-30T07:39:36.501Z,21.80
2022-10-30T07:42:26.470Z,21.90
2022-10-30T07:45:31.391Z,22.00
2022-10-30T07:48:23.431Z,22.10
2022-10-30T07:51:02.098Z,22.20
2022-10-30T07:53:31.248Z,22.40
2022-10-30T07:56:01.773Z,22.60
2022-10-30T07:58:50.904Z,22.80
2022-10-30T08:01:35.332Z,23.00
2022-10-30T08:04:18.423Z,23.10
2022-10-30T08:06:47.698Z,23.10
2022-10-30T08:09:17.174Z,23.10
2022-10-30T08:11:50.754Z,23.10
2022-10-30T08:14:21.020Z,23.00
2022-10-30T08:16:51.797Z,23.00
2022-10-30T08:19:21.198Z,22.90
2022-10-30T08:21:50.721Z,22.80
2022-10-30T08:24:21.790Z,22.70
2022-10-30T08:26:54.717Z,22.70
2022-10-30T08:29:25.412Z,22.60
2022-10-30T08:31:55.001Z,22.50
2022-10-30T08:34:24.494Z,22.40
2022-10-30T08:37:00.189Z,22.30
2022-10-30T08:39:29.368Z,22.30
2022-10-30T08:42:08.899Z,22.30
2022-10-30T08:44:44.928Z,22.30
2022-10-30T08:47:43.129Z,22.30
2022-10-30T08:50:12.453Z,22.30
2022-10-30T08:52:41.762Z,22.40
2022-10-30T08:55:11.042Z,22.40
2022-10-30T08:57:41.583Z,22.40
2022-10-30T09:00:12.316Z,22.50
2022-10-30T09:03:04.983Z,22.60
2022-10-30T09:05:52.936Z,22.70
2022-10-30T09:08:31.197Z,22.80
2022-10-30T09:11:09.950Z,23.00
2022-10-30T09:13:41.215Z,23.20
2022-10-30T09:16:10.349Z,23.40
2022-10-30T09:18:40.911Z,23.50
2022-10-30T09:21:10.144Z,23.70
2022-10-30T09:23:48.606Z,23.90
2022-10-30T09:26:36.519Z,24.20
2022-10-30T09:29:16.156Z,24.50
2022-10-30T09:32:14.217Z,24.90
2022-10-30T09:34:53.584Z,25.40
2022-10-30T09:37:26.689Z,26.00
2022-10-30T09:40:01.473Z,26.60
2022-10-30T09:42:44.714Z,27.30
2022-10-30T09:45:53.490Z,28.10
2022-10-30T09:48:46.481Z,28.80
2022-10-30T09:51:49.373Z,29.30
2022-10-30T09:54:35.530Z,29.70
2022-10-30T09:57:13.084Z,29.80
2022-10-30T09:59:54.559Z,29.80
2022-10-30T10:02:36.556Z,29.70
2022-10-30T10:05:16.698Z,29.60
2022-10-30T10:08:16.105Z,29.50
2022-10-30T10:11:12.872Z,29.30
2022-10-30T10:13:49.611Z,29.30
2022-10-30T10:16:21.364Z,29.20
2022-10-30T10:19:01.983Z,29.20
2022-10-30T10:21:33.727Z,29.20
2022-10-30T10:24:05.234Z,29.30
2022-10-30T10:26:50.059Z,29.40
2022-10-30T10:29:35.997Z,29.60
2022-10-30T10:32:37.685Z,29.90
2022-10-30T10:35:39.147Z,30.40
2022-10-30T10:38:20.811Z,31.10
2022-10-30T10:41:01.832Z,31.80
2022-10-30T10:43:46.698Z,32.30
2022-10-30T10:46:34.900Z,32.60
2022-10-30T10:49:25.969Z,32.90
2022-10-30T10:52:02.280Z,33.00
2022-10-30T10:54:40.386Z,33.20
2022-10-30T10:57:16.228Z,33.30
2022-10-30T10:59:49.023Z,33.40
2022-10-30T11:02:34.466Z,33.40
2022-10-30T11:05:09.879Z,33.50
2022-10-30T11:07:48.918Z,33.50
2022-10-30T11:10:21.216Z,33.50
2022-10-30T11:12:50.652Z,33.60
2022-10-30T11:15:40.919Z,33.70
2022-10-30T11:18:11.698Z,33.80
2022-10-30T11:20:48.396Z,33.60
2022-10-30T11:23:40.773Z,33.40
2022-10-30T11:26:33.889Z,33.10
2022-10-30T11:29:13.721Z,32.70
2022-10-30T11:31:44.511Z,32.30
2022-10-30T11:34:34.151Z,31.90
2022-10-30T11:37:04.395Z,31.50
2022-10-30T11:39:36.303Z,31.10
2022-10-30T11:42:10.881Z,30.80
2022-10-30T11:44:45.998Z,30.50
2022-10-30T11:47:16.121Z,30.20
2022-10-30T11:49:50.353Z,29.90
2022-10-30T11:52:22.773Z,29.70
2022-10-30T11:54:57.040Z,29.40
2022-10-30T11:57:32.584Z,29.30
2022-10-30T12:00:05.377Z,29.00
2022-10-30T12:02:57.628Z,28.90
2022-10-30T12:05:47.868Z,28.70
2022-10-30T12:08:22.690Z,28.50
2022-10-30T12:11:03.837Z,28.30
2022-10-30T12:13:39.617Z,28.20
2022-10-30T12:16:18.079Z,28.10
2022-10-30T12:19:01.661Z,27.90
2022-10-30T12:21:37.952Z,27.80
2022-10-30T12:24:17.649Z,27.70
2022-10-30T12:26:52.662Z,27.60
2022-10-30T12:29:36.477Z,27.50
2022-10-30T12:32:20.321Z,27.40
2022-10-30T12:34:57.221Z,27.40
2022-10-30T12:37:33.020Z,27.30
2022-10-30T12:40:11.254Z,27.20
2022-10-30T12:42:52.109Z,27.10
2022-10-30T12:45:25.359Z,27.10
2022-10-30T12:48:02.214Z,27.00
2022-10-30T12:50:38.925Z,27.00
2022-10-30T12:53:22.078Z,26.90
2022-10-30T12:55:56.997Z,26.90
2022-10-30T12:58:37.428Z,26.80
2022-10-30T13:01:18.301Z,26.80
2022-10-30T13:03:54.920Z,26.80
2022-10-30T13:06:29.181Z,26.80
2022-10-30T13:09:14.752Z,26.70
2022-10-30T13:11:50.435Z,26.70
2022-10-30T13:14:23.965Z,26.60
2022-10-30T13:16:53.601Z,26.60
2022-10-30T13:19:22.968Z,26.50
2022-10-30T13:22:00.158Z,26.50
2022-10-30T13:24:45.988Z,26.50
2022-10-30T13:27:23.546Z,26.50
2022-10-30T13:30:01.753Z,26.50
2022-10-30T13:32:45.180Z,26.40
2022-10-30T13:35:28.857Z,26.40
2022-10-30T13:38:08.343Z,26.40
2022-10-30T13:40:44.252Z,26.30
2022-10-30T13:43:26.107Z,26.30
2022-10-30T13:46:17.339Z,26.30
2022-10-30T13:49:05.552Z,26.30
2022-10-30T13:51:41.866Z,26.20
2022-10-30T13:54:20.396Z,26.20
2022-10-30T13:56:50.758Z,26.10
2022-10-30T13:59:35.096Z,26.10
2022-10-30T14:02:14.647Z,26.10
2022-10-30T14:04:51.533Z,26.10
2022-10-30T14:07:30.670Z,26.00
2022-10-30T14:10:08.772Z,26.00
2022-10-30T14:13:16.286Z,26.00
2022-10-30T14:15:47.689Z,25.90
2022-10-30T14:18:46.070Z,25.90
2022-10-30T14:21:46.066Z,25.90
2022-10-30T14:24:19.774Z,25.80
2022-10-30T14:26:53.393Z,25.70
2022-10-30T14:29:47.270Z,25.70
2022-10-30T14:32:43.008Z,25.60
2022-10-30T14:35:41.324Z,25.60
2022-10-30T14:38:28.886Z,25.50
2022-10-30T14:41:32.812Z,25.40
2022-10-30T14:44:47.821Z,25.40
2022-10-30T14:47:46.807Z,25.30
2022-10-30T14:50:33.984Z,25.30
2022-10-30T14:53:35.666Z,25.20
2022-10-30T14:56:11.831Z,25.10
2022-10-30T14:58:41.341Z,25.10
2022-10-30T15:01:33.152Z,25.00
2022-10-30T15:04:16.419Z,24.90
2022-10-30T15:06:59.435Z,24.90
2022-10-30T15:10:01.259Z,24.80
2022-10-30T15:13:02.366Z,24.80
2022-10-30T15:15:32.820Z,24.70
2022-10-30T15:18:09.845Z,24.60
2022-10-30T15:20:40.877Z,24.50
2022-10-30T15:23:23.293Z,24.50
2022-10-30T15:25:55.479Z,24.40
2022-10-30T15:28:30.642Z,24.30
2022-10-30T15:31:02.199Z,24.20
2022-10-30T15:33:32.948Z,24.10
2022-10-30T15:36:02.306Z,24.10
2022-10-30T15:38:32.895Z,24.00
2022-10-30T15:41:04.417Z,23.90
2022-10-30T15:43:37.959Z,23.80
2022-10-30T15:46:11.648Z,23.70
2022-10-30T15:48:46.778Z,23.70
2022-10-30T15:51:19.482Z,23.60
2022-10-30T15:53:53.192Z,23.50
2022-10-30T15:56:28.669Z,23.40
2022-10-30T15:59:01.586Z,23.40
2022-10-30T16:01:35.122Z,23.30
2022-10-30T16:04:04.360Z,23.20
2022-10-30T16:06:33.871Z,23.10
2022-10-30T16:09:05.874Z,23.00
2022-10-30T16:11:35.231Z,22.90
2022-10-30T16:14:09.374Z,22.80
2022-10-30T16:16:38.832Z,22.70
2022-10-30T16:19:07.989Z,22.60
2022-10-30T16:21:37.324Z,22.50
2022-10-30T16:24:10.055Z,22.50
2022-10-30T16:26:40.025Z,22.40
2022-10-30T16:29:24.774Z,22.30
2022-10-30T16:31:54.883Z,22.20
2022-10-30T16:34:27.936Z,22.10
2022-10-30T16:36:58.912Z,22.10
2022-10-30T16:39:30.470Z,22.00
2022-10-30T16:42:00.530Z,21.90
2022-10-30T16:44:31.788Z,21.90
2022-10-30T16:47:07.772Z,21.80
2022-10-30T16:49:37.957Z,21.80
2022-10-30T16:52:08.959Z,21.70
2022-10-30T16:54:42.504Z,21.60
2022-10-30T16:57:18.476Z,21.60
2022-10-30T16:59:51.050Z,21.50
2022-10-30T17:02:23.461Z,21.40
2022-10-30T17:04:58.233Z,21.40
2022-10-30T17:07:28.887Z,21.30
2022-10-30T17:09:59.483Z,21.20
2022-10-30T17:12:30.482Z,21.10
2022-10-30T17:15:13.730Z,21.10
2022-10-30T17:17:43.923Z,21.00
2022-10-30T17:20:30.862Z,21.00
2022-10-30T17:23:15.025Z,20.90
2022-10-30T17:25:46.097Z,20.90
2022-10-30T17:28:29.053Z,20.80
2022-10-30T17:30:58.265Z,20.80
2022-10-30T17:33:36.907Z,20.70
2022-10-30T17:36:07.868Z,20.70
2022-10-30T17:38:37.314Z,20.60
2022-10-30T17:41:08.437Z,20.60
2022-10-30T17:43:50.633Z,20.60
2022-10-30T17:46:20.706Z,20.50
2022-10-30T17:48:50.609Z,20.50
2022-10-30T17:51:20.601Z,20.50
2022-10-30T17:53:50.512Z,20.40
2022-10-30T17:56:23.472Z,20.40
2022-10-30T17:58:52.751Z,20.40
2022-10-30T18:01:26.322Z,20.40
2022-10-30T18:03:57.289Z,20.30
2022-10-30T18:06:29.774Z,20.30
2022-10-30T18:08:59.015Z,20.30
2022-10-30T18:11:29.806Z,20.20
2022-10-30T18:14:01.902Z,20.20
2022-10-30T18:16:31.984Z,20.20
2022-10-30T18:19:01.289Z,20.10
2022-10-30T18:21:31.383Z,20.10
2022-10-30T18:24:00.483Z,20.10
2022-10-30T18:26:35.167Z,20.10
2022-10-30T18:29:07.052Z,20.00
2022-10-30T18:31:36.855Z,20.00
2022-10-30T18:34:07.589Z,20.00
2022-10-30T18:36:36.697Z,19.90
2022-10-30T18:39:05.859Z,19.90
2022-10-30T18:41:38.929Z,19.90
2022-10-30T18:44:08.155Z,19.80
2022-10-30T18:46:37.231Z,19.80
2022-10-30T18:49:06.423Z,19.70
2022-10-30T18:51:35.592Z,19.70
2022-10-30T18:54:04.997Z,19.70
2022-10-30T18:56:35.719Z,19.70
2022-10-30T18:59:04.901Z,19.70
2022-10-30T19:01:34.430Z,19.70
2022-10-30T19:04:04.649Z,19.60
2022-10-30T19:06:34.782Z,19.60
2022-10-30T19:09:04.008Z,19.60
2022-10-30T19:11:37.207Z,19.50
2022-10-30T19:14:12.894Z,19.60
2022-10-30T19:16:42.935Z,19.60
2022-10-30T19:19:14.995Z,19.50
2022-10-30T19:21:44.488Z,19.50
2022-10-30T19:24:17.791Z,19.50
2022-10-30T19:26:48.548Z,19.50
2022-10-30T19:29:17.650Z,19.50
2022-10-30T19:31:46.746Z,19.50
2022-10-30T19:34:15.792Z,19.50
2022-10-30T19:36:44.860Z,19.40
2022-10-30T19:39:16.793Z,19.50
2022-10-30T19:41:47.716Z,19.50
2022-10-30T19:44:17.018Z,19.40
2022-10-30T19:46:46.315Z,19.50
2022-10-30T19:49:18.967Z,19.40
2022-10-30T19:51:49.171Z,19.50
2022-10-30T19:54:18.320Z,19.50
2022-10-30T19:56:48.814Z,19.50
2022-10-30T19:59:17.926Z,19.50
2022-10-30T20:01:47.146Z,19.50
2022-10-30T20:04:16.395Z,19.50
2022-10-30T20:06:45.493Z,19.50
2022-10-30T20:09:14.612Z,19.50
2022-10-30T20:11:43.827Z,19.60
2022-10-30T20:14:14.942Z,19.60
2022-10-30T20:16:45.143Z,19.60
2022-10-30T20:19:29.164Z,19.60
2022-10-30T20:21:59.190Z,19.60
2022-10-30T20:24:28.737Z,19.60
2022-10-30T20:26:59.594Z,19.60
2022-10-30T20:29:30.975Z,19.50
2022-10-30T20:32:00.567Z,19.50
2022-10-30T20:34:29.796Z,19.50
2022-10-30T20:37:01.528Z,19.50
2022-10-30T20:39:30.993Z,19.40
2022-10-30T20:42:00.333Z,19.40
2022-10-30T20:44:31.130Z,19.40
2022-10-30T20:47:00.394Z,19.40
2022-10-30T20:49:30.125Z,19.30
2022-10-30T20:51:59.308Z,19.30
2022-10-30T20:54:28.478Z,19.30
2022-10-30T20:56:57.707Z,19.30
2022-10-30T20:59:27.098Z,19.30
2022-10-30T21:01:58.189Z,19.30
2022-10-30T21:04:27.566Z,19.30
2022-10-30T21:06:57.165Z,19.30
2022-10-30T21:09:26.417Z,19.30
2022-10-30T21:11:55.565Z,19.20
2022-10-30T21:14:24.768Z,19.30
2022-10-30T21:16:54.058Z,19.20
2022-10-30T21:19:24.960Z,19.20
2022-10-30T21:21:54.460Z,19.20
2022-10-30T21:24:23.664Z,19.20
2022-10-30T21:26:52.788Z,19.20
2022-10-30T21:29:21.899Z,19.20
2022-10-30T21:31:51.216Z,19.20
2022-10-30T21:34:20.866Z,19.20
2022-10-30T21:36:51.322Z,19.20
2022-10-30T21:39:20.716Z,19.20
2022-10-30T21:41:49.995Z,19.20
2022-10-30T21:44:19.297Z,19.20
2022-10-30T21:46:51.084Z,19.10
2022-10-30T21:49:21.015Z,19.10
2022-10-30T21:51:51.888Z,19.10
2022-10-30T21:54:21.533Z,19.10
2022-10-30T21:56:50.998Z,19.10
2022-10-30T21:59:20.129Z,19.10
2022-10-30T22:01:49.307Z,19.10
2022-10-30T22:04:19.679Z,19.10
2022-10-30T22:06:48.831Z,19.00
2022-10-30T22:09:19.954Z,19.00
2022-10-30T22:11:49.495Z,19.00
2022-10-30T22:14:18.669Z,19.00
2022-10-30T22:16:49.756Z,19.00
2022-10-30T22:19:19.184Z,19.00
2022-10-30T22:21:48.461Z,18.90
2022-10-30T22:24:18.956Z,18.90
2022-10-30T22:26:48.217Z,18.90
2022-10-30T22:29:17.472Z,18.90
2022-10-30T22:31:46.561Z,18.90
2022-10-30T22:34:15.592Z,18.90
2022-10-30T22:36:44.657Z,18.90
2022-10-30T22:39:16.166Z,18.90
2022-10-30T22:41:46.815Z,18.90
2022-10-30T22:44:18.680Z,18.90
2022-10-30T22:46:47.949Z,18.90
2022-10-30T22:49:16.992Z,18.90
2022-10-30T22:51:46.069Z,18.90
2022-10-30T22:54:15.199Z,18.90
2022-10-30T22:56:45.930Z,18.90
2022-10-30T22:59:15.513Z,18.90
2022-10-30T23:01:45.767Z,18.90
2022-10-30T23:04:16.137Z,18.90
2022-10-30T23:06:45.627Z,18.90
2022-10-30T23:09:18.689Z,18.90
2022-10-30T23:11:49.504Z,18.90
2022-10-30T23:14:19.024Z,18.80
2022-10-30T23:16:48.403Z,18.80
2022-10-30T23:19:17.408Z,18.70
2022-10-30T23:21:46.534Z,18.70
2022-10-30T23:24:15.649Z,18.70
2022-10-30T23:26:44.756Z,18.70
2022-10-30T23:29:15.211Z,18.70
2022-10-30T23:31:44.581Z,18.60
2022-10-30T23:34:16.231Z,18.60
2022-10-30T23:36:46.168Z,18.60
2022-10-30T23:39:17.092Z,18.60
2022-10-30T23:41:46.837Z,18.50
2022-10-30T23:44:17.903Z,18.50
2022-10-30T23:46:47.172Z,18.50
2022-10-30T23:49:16.257Z,18.50
2022-10-30T23:51:45.329Z,18.40
2022-10-30T23:54:14.396Z,18.40
2022-10-30T23:56:43.380Z,18.40
2022-10-30T23:59:12.442Z,18.30
